Time;durP1;ratioP1;P1;durP2;ratioP2;P2;SDS_P1;SDS_P2;PMS_P1;PMS_P2;Temp;Humidity;BMP_temperature;BMP_pressure;BME280_temperature;BME280_humidity;BME280_pressure;Samples;Min_cycle;Max_cycle;Signal;HPM_P1;HPM_P2
2021/05/03 00:00:13;;;;;;;4.40;1.75;;;21.40;44.90;;;;;;5089530;28;20031;-69
2021/05/03 00:02:40;;;;;;;2.30;1.10;;;21.40;45.00;;;;;;5089367;28;20433;-69
2021/05/03 00:05:17;;;;;;;2.28;1.27;;;21.40;45.00;;;;;;5088513;28;20016;-69
2021/05/03 00:07:43;;;;;;;2.72;1.50;;;21.40;45.10;;;;;;5087525;28;20085;-68
2021/05/03 00:10:10;;;;;;;4.95;2.28;;;21.40;45.10;;;;;;5088924;28;20016;-69
2021/05/03 00:12:37;;;;;;;3.05;1.85;;;21.40;45.20;;;;;;5088262;28;20021;-69
2021/05/03 00:15:04;;;;;;;2.13;1.20;;;21.40;45.20;;;;;;5088820;28;20031;-69
2021/05/03 00:17:31;;;;;;;2.85;1.65;;;21.40;45.20;;;;;;5089646;28;20031;-69
2021/05/03 00:19:57;;;;;;;4.93;1.30;;;21.40;45.30;;;;;;5091858;28;20399;-69
2021/05/03 00:22:24;;;;;;;6.65;1.67;;;21.40;45.30;;;;;;5093281;28;20039;-68
2021/05/03 00:25:30;;;;;;;4.82;1.30;;;21.40;45.30;;;;;;5084048;28;20482;-68
2021/05/03 00:28:36;;;;;;;2.70;1.35;;;21.40;45.40;;;;;;5086011;28;20059;-69
2021/05/03 00:31:02;;;;;;;7.43;2.13;;;21.30;45.30;;;;;;5088868;28;20050;-68
2021/05/03 00:33:29;;;;;;;2.75;1.27;;;21.40;45.30;;;;;;5091857;28;20028;-68
2021/05/03 00:35:55;;;;;;;3.95;1.40;;;21.30;45.30;;;;;;5085602;28;20028;-69
2021/05/03 00:38:22;;;;;;;4.72;1.70;;;21.30;45.30;;;;;;5088697;28;20024;-69
2021/05/03 00:40:48;;;;;;;3.38;1.38;;;21.30;45.30;;;;;;5091691;28;20055;-69
2021/05/03 00:43:19;;;;;;;3.45;1.40;;;21.30;45.30;;;;;;5092901;28;20061;-69
2021/05/03 00:45:50;;;;;;;3.08;1.60;;;21.30;45.40;;;;;;5092400;28;20016;-69
2021/05/03 00:48:17;;;;;;;3.03;1.20;;;21.30;45.40;;;;;;5092982;28;20045;-69
2021/05/03 00:50:44;;;;;;;2.88;1.10;;;21.30;45.40;;;;;;5089505;28;20016;-69
2021/05/03 00:53:11;;;;;;;3.65;1.70;;;21.30;45.40;;;;;;5089066;28;20020;-69
2021/05/03 00:55:37;;;;;;;3.20;1.42;;;21.30;45.30;;;;;;5093036;28;20114;-69
2021/05/03 00:58:04;;;;;;;2.65;1.60;;;21.30;45.40;;;;;;5091767;28;20119;-68
2021/05/03 01:00:32;;;;;;;4.47;1.17;;;21.30;45.40;;;;;;5091789;28;20462;-68
2021/05/03 01:02:59;;;;;;;5.10;1.25;;;21.30;45.50;;;;;;5090042;28;20023;-69
2021/05/03 01:05:28;;;;;;;6.68;1.65;;;21.20;45.50;;;;;;5092878;28;20585;-69
2021/05/03 01:07:56;;;;;;;5.72;1.63;;;21.30;45.50;;;;;;5088624;28;20023;-68
2021/05/03 01:10:23;;;;;;;4.38;1.50;;;21.20;45.50;;;;;;5092014;28;20026;-69
2021/05/03 01:12:50;;;;;;;4.20;1.40;;;21.20;45.60;;;;;;5092400;28;20078;-69
2021/05/03 01:15:26;;;;;;;4.10;2.03;;;21.20;45.60;;;;;;5085237;28;20416;-69
2021/05/03 01:17:57;;;;;;;6.00;2.10;;;21.20;45.60;;;;;;5089280;28;20642;-69
2021/05/03 01:20:26;;;;;;;3.40;1.70;;;21.20;45.60;;;;;;5091647;28;20020;-69
2021/05/03 01:22:57;;;;;;;4.43;1.60;;;21.10;45.60;;;;;;5086980;28;20081;-69
2021/05/03 01:25:32;;;;;;;3.45;1.25;;;21.10;45.70;;;;;;5091707;28;20032;-69
2021/05/03 01:28:01;;;;;;;5.47;2.83;;;21.10;45.60;;;;;;5090039;28;20540;-69
2021/05/03 01:30:33;;;;;;;3.55;1.58;;;21.10;45.60;;;;;;5091568;28;20040;-69
2021/05/03 01:33:00;;;;;;;4.47;2.10;;;21.10;45.60;;;;;;5091118;28;20020;-69
2021/05/03 01:35:27;;;;;;;6.47;2.05;;;21.10;45.60;;;;;;5092221;28;20046;-69
2021/05/03 01:37:56;;;;;;;5.03;1.77;;;21.10;45.60;;;;;;5085142;28;20031;-69
2021/05/03 01:40:25;;;;;;;6.68;1.90;;;21.00;45.70;;;;;;5091742;28;20013;-68
2021/05/03 01:42:52;;;;;;;3.38;1.30;;;21.00;45.70;;;;;;5092296;28;20028;-68
2021/05/03 01:45:26;;;;;;;3.25;1.88;;;21.00;45.70;;;;;;5090996;28;20024;-68
2021/05/03 01:47:54;;;;;;;4.43;1.70;;;21.00;45.70;;;;;;5089398;28;20051;-69
2021/05/03 01:50:23;;;;;;;3.47;1.58;;;21.00;45.70;;;;;;5086377;28;20519;-68
2021/05/03 01:52:50;;;;;;;2.20;1.52;;;20.90;45.70;;;;;;5091543;28;20103;-69
2021/05/03 01:55:18;;;;;;;1.83;1.33;;;20.90;45.70;;;;;;5086947;28;20517;-68
2021/05/03 01:57:45;;;;;;;2.35;1.67;;;20.90;45.70;;;;;;5091270;28;20028;-69
2021/05/03 02:00:13;;;;;;;2.15;1.38;;;20.90;45.70;;;;;;5086926;28;20028;-69
2021/05/03 02:02:44;;;;;;;8.75;2.10;;;20.90;45.80;;;;;;5089697;28;20048;-68
2021/05/03 02:05:15;;;;;;;3.05;1.50;;;20.90;45.70;;;;;;5086464;28;20161;-69
2021/05/03 02:07:42;;;;;;;3.20;1.50;;;20.90;45.70;;;;;;5090435;28;20058;-69
2021/05/03 02:10:09;;;;;;;2.35;1.58;;;20.80;45.70;;;;;;5091742;28;20017;-68
2021/05/03 02:12:39;;;;;;;2.35;1.10;;;20.80;45.70;;;;;;5090963;28;20024;-68
2021/05/03 02:15:08;;;;;;;3.42;1.27;;;20.80;45.70;;;;;;5090976;28;20000;-69
2021/05/03 02:17:35;;;;;;;3.90;1.20;;;20.80;45.70;;;;;;5091287;28;20027;-69
2021/05/03 02:20:01;;;;;;;2.20;1.33;;;20.80;45.70;;;;;;5090443;28;20024;-68
2021/05/03 02:22:28;;;;;;;2.10;1.33;;;20.80;45.70;;;;;;5090068;28;20012;-68
2021/05/03 02:24:54;;;;;;;1.70;1.10;;;20.80;45.70;;;;;;5087699;28;20031;-69
2021/05/03 02:27:21;;;;;;;4.30;1.60;;;20.70;45.70;;;;;;5091217;28;20020;-68
2021/05/03 02:29:47;;;;;;;4.38;1.02;;;20.70;45.60;;;;;;5090923;28;20024;-68
2021/05/03 02:32:14;;;;;;;3.25;1.23;;;20.70;45.60;;;;;;5084116;28;20032;-68
2021/05/03 02:34:41;;;;;;;5.88;1.20;;;20.70;45.60;;;;;;5089976;28;20024;-69
2021/05/03 02:37:08;;;;;;;3.30;1.50;;;20.70;45.60;;;;;;5090044;28;20440;-69
2021/05/03 02:39:34;;;;;;;3.63;1.20;;;20.70;45.60;;;;;;5091131;28;20048;-69
2021/05/03 02:42:01;;;;;;;1.63;1.10;;;20.70;45.60;;;;;;5071132;28;20488;-68
2021/05/03 02:44:29;;;;;;;4.20;1.30;;;20.60;45.60;;;;;;5090695;28;20065;-69
2021/05/03 02:47:35;;;;;;;2.80;0.88;;;20.60;45.60;;;;;;5085605;28;20102;-68
2021/05/03 02:50:41;;;;;;;6.28;1.65;;;20.60;45.60;;;;;;5087549;28;20525;-69
2021/05/03 02:53:47;;;;;;;2.55;1.10;;;20.60;45.60;;;;;;5087180;28;20507;-69
2021/05/03 02:56:53;;;;;;;2.15;1.58;;;20.60;45.60;;;;;;5081955;28;20111;-68
2021/05/03 02:59:59;;;;;;;1.67;1.45;;;20.60;45.70;;;;;;5085552;28;20605;-69
2021/05/03 03:02:26;;;;;;;1.92;1.60;;;20.60;45.70;;;;;;5089066;28;20033;-69
2021/05/03 03:04:52;;;;;;;2.30;1.73;;;20.60;45.70;;;;;;5089000;28;20023;-69
2021/05/03 03:07:19;;;;;;;5.65;1.65;;;20.50;45.70;;;;;;5089750;28;20008;-69
2021/05/03 03:09:45;;;;;;;3.63;1.65;;;20.50;45.70;;;;;;5090517;28;20021;-69
2021/05/03 03:12:12;;;;;;;7.15;1.60;;;20.50;45.70;;;;;;5087116;28;20039;-68
2021/05/03 03:14:39;;;;;;;3.67;1.58;;;20.50;45.80;;;;;;5089804;28;20024;-68
2021/05/03 03:17:07;;;;;;;2.67;1.75;;;20.50;45.70;;;;;;5089382;28;20032;-69
2021/05/03 03:19:40;;;;;;;2.70;1.63;;;20.50;45.80;;;;;;5083708;28;20413;-69
2021/05/03 03:22:08;;;;;;;2.88;1.30;;;20.50;45.80;;;;;;5089994;28;20026;-68
2021/05/03 03:24:34;;;;;;;2.95;1.25;;;20.50;45.80;;;;;;5089552;28;20483;-69
2021/05/03 03:27:01;;;;;;;3.65;1.83;;;20.40;45.90;;;;;;5090168;28;20534;-68
2021/05/03 03:29:28;;;;;;;3.42;1.65;;;20.40;45.90;;;;;;5089172;28;20573;-68
2021/05/03 03:31:54;;;;;;;4.25;1.73;;;20.40;46.00;;;;;;5090211;28;20044;-69
2021/05/03 03:34:21;;;;;;;8.18;1.73;;;20.40;46.00;;;;;;5089082;28;20088;-69
2021/05/03 03:36:48;;;;;;;2.22;1.55;;;20.40;46.00;;;;;;5088300;28;20040;-68
2021/05/03 03:39:14;;;;;;;4.80;1.80;;;20.40;46.00;;;;;;5089304;28;20023;-69
2021/05/03 03:41:41;;;;;;;3.78;2.15;;;20.40;46.00;;;;;;5078254;28;20028;-68
2021/05/03 03:44:09;;;;;;;4.30;1.60;;;20.40;46.10;;;;;;5088038;28;20016;-68
2021/05/03 03:46:36;;;;;;;3.72;1.80;;;20.30;46.10;;;;;;5086068;28;20016;-69
2021/05/03 03:49:02;;;;;;;3.70;2.08;;;20.30;46.10;;;;;;5089692;28;20069;-69
2021/05/03 03:51:29;;;;;;;2.63;1.98;;;20.30;46.10;;;;;;5087477;28;20032;-68
2021/05/03 03:53:55;;;;;;;5.93;2.35;;;20.30;46.20;;;;;;5088873;28;20020;-69
2021/05/03 03:56:22;;;;;;;6.03;2.05;;;20.30;46.30;;;;;;5089285;28;20044;-68
2021/05/03 03:58:50;;;;;;;6.65;2.28;;;20.30;46.30;;;;;;5093302;28;20535;-68
2021/05/03 04:01:17;;;;;;;5.45;2.10;;;20.20;46.30;;;;;;5093884;28;20024;-69
2021/05/03 04:03:52;;;;;;;4.90;2.08;;;20.30;46.40;;;;;;5090537;28;20008;-69
2021/05/03 04:09:04;;;;;;;3.45;2.08;;;20.20;46.40;;;;;;5090346;28;20039;-71
2021/05/03 04:21:02;;;;;;;6.88;5.03;;;20.20;46.50;;;;;;5093970;28;20073;-70
2021/05/03 04:22:47;;;;;;;17.67;12.65;;;20.20;46.60;;;;;;5093402;28;20019;-69
2021/05/03 04:27:42;;;;;;;15.05;12.25;;;20.10;46.60;;;;;;5059550;28;20497;-71
2021/05/03 04:30:10;;;;;;;16.65;9.75;;;20.10;46.60;;;;;;5092290;28;20020;-68
2021/05/03 04:32:37;;;;;;;11.60;7.45;;;20.10;46.50;;;;;;5093731;28;20103;-68
2021/05/03 04:35:04;;;;;;;9.45;6.65;;;20.10;46.60;;;;;;5073400;28;20424;-68
2021/05/03 04:37:31;;;;;;;10.13;6.25;;;20.10;46.60;;;;;;5092688;28;20470;-69
2021/05/03 04:39:58;;;;;;;15.55;8.48;;;20.10;46.60;;;;;;5093124;28;20017;-68
2021/05/03 04:42:24;;;;;;;10.52;7.72;;;20.10;46.70;;;;;;5090847;28;20036;-68
2021/05/03 04:44:51;;;;;;;12.02;5.28;;;20.10;46.80;;;;;;5093213;28;20047;-68
2021/05/03 04:47:18;;;;;;;8.85;5.20;;;20.10;46.80;;;;;;5092074;28;20383;-68
2021/05/03 04:49:45;;;;;;;6.80;4.40;;;20.00;46.90;;;;;;5093250;28;20020;-68
2021/05/03 04:52:11;;;;;;;3.88;2.92;;;20.00;47.00;;;;;;5091993;28;20061;-69
2021/05/03 04:54:38;;;;;;;7.07;3.38;;;20.00;47.00;;;;;;5093248;28;20506;-68
2021/05/03 04:57:04;;;;;;;5.63;3.58;;;20.00;47.00;;;;;;5073881;28;20043;-67
2021/05/03 04:59:31;;;;;;;5.65;2.97;;;20.00;47.10;;;;;;5090722;28;20364;-67
2021/05/03 05:01:57;;;;;;;9.00;3.95;;;20.00;47.80;;;;;;5088171;28;20054;-67
2021/05/03 05:04:24;;;;;;;5.43;3.45;;;20.00;47.10;;;;;;5091318;28;20024;-67
2021/05/03 05:06:52;;;;;;;6.13;3.50;;;20.00;47.20;;;;;;5091734;28;20024;-68
2021/05/03 05:09:18;;;;;;;6.40;3.50;;;19.90;47.10;;;;;;5091769;28;20685;-68
2021/05/03 05:11:45;;;;;;;8.52;3.90;;;19.90;47.20;;;;;;5092718;28;20028;-67
2021/05/03 05:14:11;;;;;;;6.28;4.07;;;19.90;47.20;;;;;;5092121;28;20024;-66
2021/05/03 05:16:38;;;;;;;7.63;3.85;;;20.00;47.30;;;;;;5092214;28;20021;-66
2021/05/03 05:19:04;;;;;;;16.73;7.25;;;19.90;47.30;;;;;;5092502;28;20061;-66
2021/05/03 05:21:32;;;;;;;5.72;3.42;;;19.90;47.30;;;;;;5091179;28;20050;-66
2021/05/03 05:23:58;;;;;;;8.50;3.83;;;19.90;47.30;;;;;;5090981;28;20468;-68
2021/05/03 05:26:24;;;;;;;4.53;3.63;;;19.90;47.40;;;;;;5087151;28;20318;-68
2021/05/03 05:28:51;;;;;;;10.57;4.07;;;19.90;47.40;;;;;;5092406;28;20366;-69
2021/05/03 05:31:17;;;;;;;8.60;4.47;;;19.90;47.50;;;;;;5091296;28;20051;-68
2021/05/03 05:33:44;;;;;;;7.07;4.35;;;19.90;47.60;;;;;;5091448;28;20138;-68
2021/05/03 05:36:10;;;;;;;9.48;4.72;;;19.90;47.60;;;;;;5092041;28;20065;-68
2021/05/03 05:38:38;;;;;;;9.20;5.20;;;19.80;47.70;;;;;;5091320;28;20036;-68
2021/05/03 05:41:05;;;;;;;8.05;4.63;;;19.80;47.80;;;;;;5092785;28;20052;-66
2021/05/03 05:43:32;;;;;;;8.88;5.50;;;19.80;47.80;;;;;;5090949;28;20665;-66
2021/05/03 05:45:58;;;;;;;8.82;5.50;;;19.80;47.90;;;;;;5087178;28;20360;-66
2021/05/03 05:48:25;;;;;;;10.50;6.10;;;19.80;48.00;;;;;;5091102;28;20394;-67
2021/05/03 05:50:51;;;;;;;11.48;6.25;;;19.80;48.10;;;;;;5089576;28;20064;-66
2021/05/03 05:53:57;;;;;;;11.98;7.30;;;19.80;48.10;;;;;;5086837;28;20036;-67
2021/05/03 05:57:03;;;;;;;12.80;6.75;;;19.80;48.20;;;;;;5077738;28;20016;-67
2021/05/03 06:00:09;;;;;;;11.02;7.18;;;19.80;48.30;;;;;;5079379;28;20036;-67
2021/05/03 06:03:15;;;;;;;15.10;7.25;;;19.80;48.30;;;;;;5078056;28;20529;-67
2021/05/03 06:05:42;;;;;;;12.57;6.82;;;19.80;48.40;;;;;;5076270;28;20032;-67
2021/05/03 06:08:09;;;;;;;15.45;7.35;;;19.80;48.50;;;;;;5074275;28;20021;-67
2021/05/03 06:10:35;;;;;;;11.13;7.00;;;19.80;48.60;;;;;;5077867;28;20490;-67
2021/05/03 06:13:02;;;;;;;15.95;7.10;;;19.80;48.70;;;;;;5075804;28;20391;-67
2021/05/03 06:15:28;;;;;;;11.43;6.80;;;19.80;48.90;;;;;;5078262;28;20047;-67
2021/05/03 06:17:55;;;;;;;12.70;7.03;;;19.80;49.00;;;;;;5076726;28;20024;-67
2021/05/03 06:20:22;;;;;;;11.07;7.10;;;19.80;49.00;;;;;;5078315;28;20028;-67
2021/05/03 06:22:48;;;;;;;12.65;7.90;;;19.80;49.20;;;;;;5077242;28;20055;-67
2021/05/03 06:25:14;;;;;;;15.13;7.40;;;19.80;49.30;;;;;;5075175;28;20025;-67
2021/05/03 06:27:41;;;;;;;18.40;8.07;;;19.80;49.50;;;;;;5073615;28;20475;-66
2021/05/03 06:30:08;;;;;;;14.77;8.20;;;19.80;49.40;;;;;;5078748;28;20428;-67
2021/05/03 06:32:35;;;;;;;16.02;10.55;;;19.80;49.50;;;;;;5076592;28;20020;-67
2021/05/03 06:35:01;;;;;;;28.80;22.23;;;19.80;49.50;;;;;;5084616;28;20393;-67
2021/05/03 06:37:28;;;;;;;42.85;31.60;;;19.80;49.60;;;;;;5075595;28;20727;-68
2021/05/03 06:39:54;;;;;;;41.33;30.02;;;19.80;49.60;;;;;;5075284;28;20479;-67
2021/05/03 06:42:20;;;;;;;34.97;25.88;;;19.80;49.80;;;;;;5071538;28;20495;-66
2021/05/03 06:44:47;;;;;;;30.27;25.00;;;19.80;49.80;;;;;;5077301;28;20383;-67
2021/05/03 06:47:15;;;;;;;33.42;23.25;;;19.80;49.90;;;;;;5076605;28;20024;-69
2021/05/03 06:49:42;;;;;;;25.17;19.90;;;19.90;50.10;;;;;;5077064;28;20031;-69
2021/05/03 06:52:08;;;;;;;25.92;17.58;;;19.90;50.20;;;;;;5075300;28;20496;-68
2021/05/03 06:54:35;;;;;;;25.90;17.83;;;19.90;50.20;;;;;;5075542;28;20016;-68
2021/05/03 06:57:41;;;;;;;24.90;15.13;;;19.90;50.30;;;;;;5077637;28;20056;-67
2021/05/03 07:00:10;;;;;;;24.27;14.35;;;19.90;50.30;;;;;;5072870;28;20024;-67
2021/05/03 07:02:37;;;;;;;23.40;17.35;;;20.00;50.40;;;;;;5074288;28;20020;-68
2021/05/03 07:05:04;;;;;;;23.10;16.65;;;20.00;50.50;;;;;;5074566;28;20013;-69
2021/05/03 07:07:30;;;;;;;23.98;17.17;;;20.00;50.50;;;;;;5075119;28;20028;-68
2021/05/03 07:09:57;;;;;;;24.27;16.85;;;20.00;50.60;;;;;;5076508;28;20016;-67
2021/05/03 07:12:25;;;;;;;24.90;14.85;;;20.10;50.60;;;;;;5080115;28;20109;-68
2021/05/03 07:14:52;;;;;;;24.48;16.20;;;20.10;50.60;;;;;;5079627;28;20024;-69
2021/05/03 07:17:19;;;;;;;25.67;14.95;;;20.10;50.60;;;;;;5079089;28;20028;-69
2021/05/03 07:19:46;;;;;;;21.65;13.88;;;20.10;50.70;;;;;;5076097;28;20024;-69
2021/05/03 07:22:13;;;;;;;19.48;13.25;;;20.20;50.70;;;;;;5074344;28;20158;-68
2021/05/03 07:24:41;;;;;;;26.83;15.25;;;20.20;50.80;;;;;;5072549;28;20024;-67
2021/05/03 07:27:09;;;;;;;20.60;15.05;;;20.30;50.90;;;;;;5073085;28;20054;-68
2021/05/03 07:29:36;;;;;;;20.77;14.05;;;20.30;50.90;;;;;;5078993;28;20034;-69
2021/05/03 07:32:04;;;;;;;19.75;13.82;;;20.30;51.00;;;;;;5076726;28;20044;-69
2021/05/03 07:34:30;;;;;;;20.13;14.25;;;20.30;51.00;;;;;;5075358;28;20093;-67
2021/05/03 07:36:57;;;;;;;18.63;12.75;;;20.40;51.10;;;;;;5078340;28;20013;-69
2021/05/03 07:39:23;;;;;;;19.23;11.52;;;20.40;51.00;;;;;;5078437;28;20463;-67
2021/05/03 07:41:50;;;;;;;12.95;10.57;;;20.50;50.60;;;;;;5079354;28;20086;-69
2021/05/03 07:44:16;;;;;;;14.48;8.55;;;20.50;50.50;;;;;;5081714;28;20016;-68
2021/05/03 07:46:43;;;;;;;12.05;8.95;;;20.60;50.40;;;;;;5085864;28;20414;-69
2021/05/03 07:49:10;;;;;;;13.40;9.38;;;20.60;50.10;;;;;;5083884;28;20154;-69
2021/05/03 07:51:36;;;;;;;11.57;7.03;;;20.70;50.10;;;;;;5083921;28;20024;-70
2021/05/03 07:54:03;;;;;;;14.15;7.63;;;20.70;50.20;;;;;;5081565;28;20065;-68
2021/05/03 07:56:32;;;;;;;11.10;7.75;;;20.80;49.90;;;;;;5078923;28;20543;-69
2021/05/03 07:58:59;;;;;;;13.25;6.72;;;20.80;49.80;;;;;;5076489;28;20035;-70
2021/05/03 08:01:25;;;;;;;16.00;10.93;;;20.90;49.70;;;;;;5079072;28;20038;-68
2021/05/03 08:03:52;;;;;;;21.85;15.35;;;21.00;49.60;;;;;;5081148;28;20012;-68
2021/05/03 08:06:19;;;;;;;17.80;10.95;;;21.00;49.50;;;;;;5073908;28;20065;-67
2021/05/03 08:08:47;;;;;;;12.82;9.80;;;21.10;49.20;;;;;;5076354;28;20035;-68
2021/05/03 08:11:15;;;;;;;12.82;7.60;;;21.20;49.30;;;;;;5080439;28;20356;-69
2021/05/03 08:13:44;;;;;;;11.80;7.45;;;21.30;49.40;;;;;;5076815;28;20064;-67
2021/05/03 08:16:16;;;;;;;15.27;9.13;;;21.30;49.20;;;;;;5076032;28;20036;-67
2021/05/03 08:18:43;;;;;;;18.40;8.57;;;21.30;49.10;;;;;;5075646;28;20394;-69
2021/05/03 08:21:11;;;;;;;15.50;7.47;;;21.40;49.10;;;;;;5079849;28;20017;-68
2021/05/03 08:23:38;;;;;;;13.55;6.70;;;21.50;49.10;;;;;;5078904;28;20032;-69
2021/05/03 08:26:05;;;;;;;17.77;7.75;;;21.50;49.20;;;;;;5077536;28;20032;-69
2021/05/03 08:28:31;;;;;;;16.17;7.03;;;21.60;49.30;;;;;;5065093;28;20380;-69
2021/05/03 08:30:58;;;;;;;14.32;8.25;;;21.70;49.20;;;;;;5084309;28;20046;-69
2021/05/03 08:33:25;;;;;;;16.05;7.93;;;21.80;49.20;;;;;;5076693;28;20087;-70
2021/05/03 08:35:53;;;;;;;19.25;8.25;;;21.80;48.90;;;;;;5074908;28;20360;-70
2021/05/03 08:38:19;;;;;;;18.90;9.50;;;21.90;48.80;;;;;;5078530;28;20032;-69
2021/05/03 08:40:46;;;;;;;33.03;15.45;;;22.00;48.80;;;;;;5080922;28;20051;-70
2021/05/03 08:43:13;;;;;;;43.15;28.63;;;22.10;48.70;;;;;;5083705;28;20568;-70
2021/05/03 08:45:41;;;;;;;26.85;14.82;;;22.20;49.00;;;;;;5080462;28;20059;-69
2021/05/03 08:48:21;;;;;;;31.58;14.63;;;22.30;48.90;;;;;;5082405;28;20028;-70
2021/05/03 08:53:26;;;;;;;23.80;10.20;;;22.40;47.90;;;;;;5080015;28;20028;-68
2021/05/03 08:55:53;;;;;;;24.98;8.82;;;22.50;46.90;;;;;;5078719;28;20016;-68
2021/05/03 08:58:20;;;;;;;24.67;11.63;;;22.70;47.10;;;;;;5077582;28;20110;-70
2021/05/03 09:00:47;;;;;;;19.67;8.50;;;22.80;46.70;;;;;;5080388;28;20038;-67
2021/05/03 09:03:15;;;;;;;12.85;5.07;;;22.90;45.40;;;;;;5080893;28;20091;-69
2021/05/03 09:05:42;;;;;;;12.18;3.53;;;23.10;43.50;;;;;;5082158;28;20020;-67
2021/05/03 09:08:30;;;;;;;10.18;3.45;;;23.30;42.10;;;;;;5082191;28;20055;-67
2021/05/03 09:10:57;;;;;;;7.30;3.30;;;23.40;41.40;;;;;;5082194;28;20490;-67
2021/05/03 09:13:30;;;;;;;7.10;2.42;;;23.60;40.50;;;;;;5083010;28;20103;-67
2021/05/03 09:16:15;;;;;;;8.40;2.08;;;23.70;40.00;;;;;;5080592;28;20039;-67
2021/05/03 09:18:42;;;;;;;;;;;23.90;40.20;;;;;;5082112;28;20032;-67
2021/05/03 09:21:30;;;;;;;3.08;1.92;;;24.00;39.60;;;;;;5090188;28;19904;-70
2021/05/03 09:24:06;;;;;;;3.03;2.13;;;24.10;39.90;;;;;;5086400;28;20086;-67
2021/05/03 09:26:34;;;;;;;4.03;1.90;;;24.30;39.40;;;;;;5086828;28;20577;-67
2021/05/03 09:29:21;;;;;;;5.20;2.80;;;24.40;38.50;;;;;;5088314;28;20023;-67
2021/05/03 09:31:57;;;;;;;5.97;1.77;;;24.40;38.60;;;;;;5086291;28;20043;-68
2021/05/03 09:34:31;;;;;;;2.55;1.58;;;24.60;39.00;;;;;;5082443;28;20116;-68
2021/05/03 09:37:21;;;;;;;10.02;2.33;;;24.70;38.30;;;;;;5085097;28;20020;-68
2021/05/03 09:40:05;;;;;;;5.00;1.80;;;24.80;38.10;;;;;;5082916;28;20028;-68
2021/05/03 09:42:52;;;;;;;3.17;1.93;;;24.90;38.70;;;;;;5087445;28;20032;-68
2021/05/03 09:45:29;;;;;;;6.95;3.75;;;25.00;38.00;;;;;;5083483;28;20023;-68
2021/05/03 09:47:57;;;;;;;58.55;52.20;;;25.10;38.00;;;;;;5088896;28;20024;-68
2021/05/03 09:50:30;;;;;;;37.90;22.00;;;25.30;36.30;;;;;;5084640;28;20024;-68
2021/05/03 09:53:09;;;;;;;19.38;14.93;;;25.40;35.60;;;;;;5084060;28;20142;-68
2021/05/03 09:55:47;;;;;;;12.45;7.28;;;25.50;35.90;;;;;;5086701;28;20016;-68
2021/05/03 09:58:24;;;;;;;10.20;5.68;;;25.60;36.10;;;;;;5085594;28;20035;-68
2021/05/03 10:00:52;;;;;;;7.78;3.63;;;25.60;36.00;;;;;;5089579;28;20043;-68
2021/05/03 10:03:35;;;;;;;7.13;3.08;;;25.80;35.80;;;;;;5081472;28;20359;-69
2021/05/03 10:06:08;;;;;;;11.45;7.15;;;25.80;35.50;;;;;;5088947;28;20467;-67
2021/05/03 10:08:36;;;;;;;10.10;3.63;;;25.90;35.90;;;;;;5083248;28;20518;-67
2021/05/03 10:11:08;;;;;;;8.30;2.95;;;25.90;35.90;;;;;;5086462;28;20025;-67
2021/05/03 10:13:35;;;;;;;7.05;2.88;;;26.00;35.20;;;;;;5088497;28;20023;-68
2021/05/03 10:16:02;;;;;;;6.78;2.85;;;26.10;35.00;;;;;;5084865;28;20012;-68
2021/05/03 10:18:31;;;;;;;6.28;2.15;;;26.20;35.20;;;;;;5082834;28;20119;-68
2021/05/03 10:20:58;;;;;;;2.75;1.92;;;26.30;35.50;;;;;;5084519;28;20025;-67
2021/05/03 10:23:26;;;;;;;3.13;2.17;;;26.30;35.70;;;;;;5085582;28;20073;-68
2021/05/03 10:25:57;;;;;;;6.40;2.67;;;26.40;36.40;;;;;;5081054;28;20020;-67
2021/05/03 10:28:25;;;;;;;4.35;2.00;;;26.50;35.60;;;;;;5088170;28;20028;-66
2021/05/03 10:30:54;;;;;;;2.92;2.00;;;26.60;35.90;;;;;;5085423;28;20105;-67
2021/05/03 10:33:33;;;;;;;4.43;1.77;;;26.60;35.50;;;;;;5085614;28;20784;-67
2021/05/03 10:35:59;;;;;;;11.43;4.93;;;26.70;35.40;;;;;;5085636;28;20028;-66
2021/05/03 10:38:40;;;;;;;18.80;14.60;;;26.80;35.00;;;;;;5085753;28;20028;-67
2021/05/03 10:41:31;;;;;;;16.33;12.52;;;26.90;35.20;;;;;;5080842;28;20062;-68
2021/05/03 10:44:22;;;;;;;8.90;5.30;;;27.00;34.20;;;;;;5083393;28;20593;-68
2021/05/03 10:46:58;;;;;;;8.13;3.67;;;27.10;33.30;;;;;;5082088;28;20024;-69
2021/05/03 10:49:34;;;;;;;6.60;3.42;;;27.10;33.10;;;;;;5088183;28;20365;-68
2021/05/03 10:52:03;;;;;;;5.55;3.47;;;27.10;32.60;;;;;;5082380;28;20020;-67
2021/05/03 10:54:45;;;;;;;6.05;2.67;;;27.10;32.40;;;;;;5083569;28;20024;-68
2021/05/03 10:57:19;;;;;;;2.30;2.10;;;27.10;32.10;;;;;;5081928;28;20078;-69
2021/05/03 10:59:53;;;;;;;7.38;2.63;;;27.10;32.30;;;;;;5081344;28;20024;-68
2021/05/03 11:02:20;;;;;;;7.07;2.67;;;27.10;31.90;;;;;;5084784;28;20090;-68
2021/05/03 11:05:23;;;;;;;6.10;2.25;;;27.20;31.70;;;;;;5082357;28;20146;-70
2021/05/03 11:08:05;;;;;;;6.60;2.25;;;27.20;31.60;;;;;;5078567;28;20059;-68
2021/05/03 11:10:57;;;;;;;5.03;2.05;;;27.20;31.50;;;;;;5085343;28;20020;-68
2021/05/03 11:13:57;;;;;;;3.25;2.20;;;27.10;31.10;;;;;;5084451;28;20099;-70
2021/05/03 11:16:31;;;;;;;6.50;1.95;;;27.10;31.20;;;;;;5082284;28;20048;-67
2021/05/03 11:19:31;;;;;;;4.18;2.22;;;27.10;31.00;;;;;;5084541;28;20085;-67
2021/05/03 11:21:57;;;;;;;4.28;2.50;;;27.10;31.00;;;;;;5060098;28;20036;-67
2021/05/03 11:27:08;;;;;;;8.70;2.40;;;27.10;31.10;;;;;;5083346;28;20028;-69
2021/05/03 11:29:46;;;;;;;7.60;5.07;;;27.10;31.20;;;;;;5079556;28;20421;-69
2021/05/03 11:32:13;;;;;;;8.35;3.00;;;27.10;31.50;;;;;;5081005;28;20403;-69
2021/05/03 11:38:37;;;;;;;7.60;3.08;;;27.20;31.50;;;;;;5070386;28;20047;-67
2021/05/03 11:43:55;;;;;;;7.38;3.13;;;27.20;31.70;;;;;;5075130;28;20633;-67
2021/05/03 11:46:26;;;;;;;7.82;3.83;;;27.20;31.70;;;;;;5079825;28;20070;-68
2021/05/03 11:48:54;;;;;;;5.78;2.67;;;27.20;32.20;;;;;;5077911;28;20028;-67
2021/05/03 11:51:22;;;;;;;6.18;3.10;;;27.20;32.00;;;;;;5076185;28;20027;-68
2021/05/03 11:53:49;;;;;;;7.78;3.15;;;27.30;32.00;;;;;;5076615;28;20020;-67
2021/05/03 11:56:21;;;;;;;10.35;2.90;;;27.20;32.00;;;;;;5077275;28;20028;-67
2021/05/03 11:58:51;;;;;;;5.65;3.20;;;27.20;32.00;;;;;;5080041;28;20118;-68
2021/05/03 12:01:19;;;;;;;9.30;3.90;;;27.10;31.80;;;;;;5076930;28;20025;-68
2021/05/03 12:03:47;;;;;;;6.30;3.10;;;27.00;31.90;;;;;;5076589;28;20115;-67
2021/05/03 12:06:36;;;;;;;6.03;2.85;;;27.00;31.80;;;;;;5079881;28;20032;-68
2021/05/03 12:09:14;;;;;;;10.07;3.28;;;26.90;31.80;;;;;;5078810;28;20466;-67
2021/05/03 12:12:01;;;;;;;7.00;2.13;;;26.90;32.00;;;;;;5075322;28;20029;-69
2021/05/03 12:14:42;;;;;;;7.85;2.65;;;26.90;32.10;;;;;;5077684;28;20021;-68
2021/05/03 12:17:26;;;;;;;6.93;2.63;;;27.00;32.30;;;;;;5084688;28;20115;-68
2021/05/03 12:20:05;;;;;;;7.68;2.35;;;27.00;32.30;;;;;;5069344;28;20068;-67
2021/05/03 12:22:32;;;;;;;9.60;2.28;;;27.10;32.40;;;;;;5079343;28;20375;-68
2021/05/03 12:25:08;;;;;;;6.10;2.33;;;27.10;32.40;;;;;;5079619;28;20040;-69
2021/05/03 12:27:35;;;;;;;8.43;4.38;;;27.10;32.40;;;;;;5082580;28;20020;-69
2021/05/03 12:30:07;;;;;;;5.05;3.63;;;27.20;32.60;;;;;;5079365;28;20418;-67
2021/05/03 12:32:38;;;;;;;5.53;3.15;;;27.20;32.60;;;;;;5080111;28;20115;-67
2021/05/03 12:35:08;;;;;;;5.32;2.50;;;27.20;32.60;;;;;;5085501;28;20070;-70
2021/05/03 12:37:34;;;;;;;13.30;4.68;;;27.10;32.80;;;;;;5082550;28;20087;-67
2021/05/03 12:40:09;;;;;;;9.27;3.20;;;27.10;32.80;;;;;;5081677;28;20051;-67
2021/05/03 12:42:51;;;;;;;6.65;3.13;;;27.00;32.90;;;;;;5081231;28;20019;-67
2021/05/03 12:45:48;;;;;;;6.38;3.00;;;26.90;33.20;;;;;;5079080;28;20028;-70
2021/05/03 12:48:28;;;;;;;8.77;2.53;;;26.80;33.50;;;;;;5074438;28;20353;-67
2021/05/03 12:57:21;;;;;;;7.15;2.92;;;26.60;34.40;;;;;;5077769;28;20476;-70
2021/05/03 13:00:01;;;;;;;7.55;2.95;;;26.50;34.60;;;;;;5079488;28;20106;-68
2021/05/03 13:05:03;;;;;;;6.07;3.78;;;26.40;35.10;;;;;;5077655;28;20055;-67
2021/05/03 13:10:48;;;;;;;5.35;2.60;;;26.30;35.70;;;;;;5078830;28;20124;-67
2021/05/03 13:30:37;;;;;;;5.50;2.78;;;25.80;37.80;;;;;;5076665;28;20039;-67
2021/05/03 13:33:43;;;;;;;8.60;3.03;;;25.80;38.50;;;;;;5079626;28;20036;-67
2021/05/03 13:36:52;;;;;;;10.70;3.10;;;25.70;39.20;;;;;;5076171;28;20024;-67
2021/05/03 13:39:58;;;;;;;11.30;4.38;;;25.70;39.40;;;;;;5076937;28;20488;-66
2021/05/03 13:42:41;;;;;;;;;;;25.60;39.70;;;;;;5074903;28;20091;-67
2021/05/03 13:45:09;;;;;;;9.20;3.72;;;25.60;40.00;;;;;;5074970;28;19961;-68
2021/05/03 13:47:36;;;;;;;7.05;3.53;;;25.60;40.20;;;;;;5075219;28;20365;-68
2021/05/03 13:50:03;;;;;;;11.65;3.45;;;25.60;40.30;;;;;;5076192;28;20009;-69
2021/05/03 13:52:30;;;;;;;12.10;4.15;;;25.60;40.50;;;;;;5076271;28;20020;-68
2021/05/03 13:54:58;;;;;;;10.80;4.45;;;25.50;40.50;;;;;;5073863;28;20013;-69
2021/05/03 13:57:24;;;;;;;9.10;3.72;;;25.60;40.90;;;;;;5076883;28;20024;-69
2021/05/03 13:59:51;;;;;;;8.68;3.17;;;25.60;41.00;;;;;;5080251;28;20048;-67